createdAt,value
2022-11-22T06:06:05.362Z,38.45
2022-11-22T06:08:34.935Z,38.10
2022-11-22T06:11:09.620Z,38.20
2022-11-22T06:13:37.039Z,38.04
2022-11-22T06:16:04.974Z,37.61
2022-11-22T06:18:32.356Z,37.70
2022-11-22T06:21:02.649Z,37.27
2022-11-22T06:23:30.194Z,37.04
2022-11-22T06:26:00.857Z,36.90
2022-11-22T06:28:29.036Z,36.59
2022-11-22T06:31:01.572Z,36.64
2022-11-22T06:33:28.740Z,36.55
2022-11-22T06:35:55.288Z,36.38
2022-11-22T06:38:21.937Z,36.41
2022-11-22T06:40:48.730Z,36.68
2022-11-22T06:43:15.401Z,36.15
2022-11-22T06:45:41.941Z,36.27
2022-11-22T06:48:08.493Z,36.16
2022-11-22T06:50:35.047Z,35.95
2022-11-22T06:53:01.688Z,36.17
2022-11-22T06:55:49.660Z,35.95
2022-11-22T06:58:14.790Z,36.12
2022-11-22T07:00:41.314Z,36.00
2022-11-22T07:03:07.895Z,35.87
2022-11-22T07:05:34.574Z,35.96
2022-11-22T07:08:08.023Z,36.12
2022-11-22T07:10:39.156Z,36.20
2022-11-22T07:13:06.781Z,36.20
2022-11-22T07:15:33.520Z,36.17
2022-11-22T07:18:00.858Z,36.06
2022-11-22T07:20:27.479Z,36.29
2022-11-22T07:22:54.028Z,36.31
2022-11-22T07:25:21.112Z,36.13
2022-11-22T07:27:48.205Z,36.15
2022-11-22T07:30:15.168Z,35.91
2022-11-22T07:32:41.969Z,35.95
2022-11-22T07:35:08.866Z,35.97
2022-11-22T07:37:35.394Z,35.90
2022-11-22T07:40:01.998Z,35.80
2022-11-22T07:42:29.044Z,36.04
2022-11-22T07:44:55.701Z,35.96
2022-11-22T07:47:23.172Z,35.88
2022-11-22T07:49:49.863Z,35.79
2022-11-22T07:52:16.434Z,35.88
2022-11-22T07:54:43.041Z,35.91
2022-11-22T07:57:09.586Z,35.91
2022-11-22T07:59:36.253Z,35.80
2022-11-22T08:02:03.044Z,35.86
2022-11-22T08:04:30.507Z,35.89
2022-11-22T08:06:57.092Z,35.92
2022-11-22T08:09:23.655Z,35.76
2022-11-22T08:11:50.518Z,35.71
2022-11-22T08:14:17.125Z,35.75
2022-11-22T08:16:43.697Z,35.59
2022-11-22T08:19:15.894Z,35.63
2022-11-22T08:21:42.556Z,35.49
2022-11-22T08:24:09.284Z,35.46
2022-11-22T08:26:35.936Z,35.67
2022-11-22T08:29:09.920Z,35.63
2022-11-22T08:31:41.141Z,35.64
2022-11-22T08:34:07.997Z,35.84
2022-11-22T08:36:34.599Z,35.48
2022-11-22T08:39:01.168Z,35.60
2022-11-22T08:41:27.985Z,35.64
2022-11-22T08:43:54.708Z,35.49
2022-11-22T08:46:21.344Z,35.89
2022-11-22T08:48:48.099Z,35.51
2022-11-22T08:51:15.102Z,35.67
2022-11-22T08:53:43.173Z,35.50
2022-11-22T08:56:14.509Z,35.95
2022-11-22T08:58:41.453Z,35.70
2022-11-22T09:01:10.601Z,35.70
2022-11-22T09:03:38.000Z,35.73
2022-11-22T09:09:15.576Z,35.83
2022-11-22T09:11:51.435Z,35.73
2022-11-22T09:14:17.946Z,35.89
2022-11-22T09:16:44.584Z,35.93
2022-11-22T09:19:11.908Z,35.69
2022-11-22T09:21:38.562Z,35.83
2022-11-22T09:24:05.516Z,35.83
2022-11-22T09:26:33.253Z,35.97
2022-11-22T09:28:59.844Z,35.90
2022-11-22T09:31:26.506Z,35.97
2022-11-22T09:33:53.373Z,35.67
2022-11-22T09:36:22.325Z,36.00
2022-11-22T09:38:49.284Z,35.87
2022-11-22T09:41:16.026Z,35.81
2022-11-22T09:44:04.598Z,35.75
2022-11-22T14:13:30.332Z,37.64
2022-11-22T14:16:16.596Z,37.82
2022-11-22T14:19:04.405Z,37.93
2022-11-22T14:21:46.536Z,37.72
2022-11-22T14:24:37.347Z,37.92
2022-11-22T14:27:43.405Z,37.70
2022-11-22T14:30:14.814Z,37.57
2022-11-22T14:32:49.833Z,37.28
2022-11-22T14:35:26.194Z,37.73
2022-11-22T14:38:31.958Z,37.63
2022-11-22T14:41:28.027Z,37.46
2022-11-22T14:44:03.755Z,37.41
2022-11-22T14:46:56.034Z,37.29
2022-11-22T14:49:33.449Z,37.44
2022-11-22T14:52:00.545Z,37.69
2022-11-22T14:54:31.234Z,37.63
2022-11-22T14:57:04.345Z,37.69
2022-11-22T15:00:03.475Z,37.86
2022-11-22T15:02:33.292Z,37.72
2022-11-22T15:09:15.079Z,37.59
2022-11-22T15:09:20.356Z,37.67
2022-11-22T15:11:13.807Z,37.89
2022-11-22T15:13:46.141Z,37.98
2022-11-22T15:57:31.745Z,38.22
2022-11-22T15:59:58.723Z,38.33
2022-11-22T16:02:29.695Z,38.11
2022-11-22T16:06:05.855Z,38.44
2022-11-22T16:07:55.478Z,38.44
2022-11-22T16:10:33.123Z,38.32
2022-11-22T16:13:24.712Z,38.26
2022-11-22T16:16:13.080Z,38.34
2022-11-22T16:18:43.672Z,38.26
2022-11-22T16:21:11.057Z,38.28
2022-11-22T16:23:42.518Z,38.55
2022-11-22T16:26:24.883Z,38.44
2022-11-22T16:28:53.410Z,38.51
2022-11-22T16:31:28.952Z,38.45
2022-11-22T16:33:56.693Z,38.66
2022-11-22T16:36:27.144Z,38.64
2022-11-22T16:38:53.735Z,38.40
2022-11-22T16:41:25.739Z,38.50
2022-11-22T16:43:54.662Z,38.46
2022-11-22T16:46:22.545Z,38.46
2022-11-22T16:48:49.404Z,38.48
2022-11-22T16:51:22.880Z,38.53
2022-11-22T16:53:50.803Z,38.60
2022-11-22T16:56:24.324Z,38.53
2022-11-22T16:58:55.925Z,38.70
2022-11-22T17:01:25.353Z,38.61
2022-11-22T17:03:58.751Z,38.45
2022-11-22T17:06:27.435Z,38.69
2022-11-22T17:08:57.079Z,38.54
2022-11-22T17:11:25.307Z,38.62
2022-11-22T17:13:52.445Z,38.71
2022-11-22T17:16:19.095Z,38.73
2022-11-22T17:18:47.484Z,38.93
2022-11-22T17:21:14.003Z,38.74
2022-11-22T17:23:40.532Z,38.75
2022-11-22T17:26:08.851Z,38.81
2022-11-22T17:28:35.361Z,38.75
2022-11-22T17:31:02.777Z,38.81
2022-11-22T17:33:30.193Z,38.74
2022-11-22T17:35:56.787Z,38.82
2022-11-22T17:38:23.349Z,38.93
2022-11-22T17:40:58.588Z,38.89
2022-11-22T17:43:25.265Z,39.12
2022-11-22T17:45:51.902Z,39.14
2022-11-22T17:48:18.852Z,39.20
2022-11-22T17:50:46.288Z,39.24
2022-11-22T17:53:13.000Z,39.36
2022-11-22T17:56:10.001Z,39.38
2022-11-22T17:58:26.530Z,39.16
2022-11-22T18:01:02.002Z,39.34
2022-11-22T18:03:29.790Z,39.37
2022-11-22T18:05:56.403Z,39.70
2022-11-22T18:08:23.175Z,39.53
2022-11-22T18:10:57.405Z,39.44
2022-11-22T18:13:24.967Z,39.44
2022-11-22T18:15:52.861Z,39.40
2022-11-22T18:18:40.763Z,39.52
2022-11-22T18:21:12.704Z,39.41
2022-11-22T18:23:42.355Z,39.57
2022-11-22T18:29:35.165Z,39.83
2022-11-22T18:31:53.945Z,39.61
2022-11-22T18:34:21.999Z,39.78
2022-11-22T18:37:05.341Z,39.84
2022-11-22T18:39:35.280Z,39.35
2022-11-22T18:42:03.183Z,39.84
2022-11-22T18:44:30.071Z,39.72
2022-11-22T18:46:56.653Z,39.40
2022-11-22T18:49:23.344Z,39.58
2022-11-22T18:51:50.143Z,39.34
2022-11-22T18:54:18.029Z,39.76
2022-11-22T18:56:44.661Z,39.46
2022-11-22T18:59:12.800Z,39.48
2022-11-22T19:01:40.698Z,39.47
2022-11-22T19:04:07.647Z,39.39
2022-11-22T19:06:34.892Z,39.24
2022-11-22T19:09:02.271Z,39.51
2022-11-22T19:11:29.814Z,39.68
2022-11-22T19:13:56.921Z,39.54
2022-11-22T19:16:23.728Z,39.53
2022-11-22T19:18:50.585Z,39.49
2022-11-22T19:21:19.641Z,39.51
2022-11-22T19:23:46.913Z,39.58
2022-11-22T19:26:15.873Z,39.50
2022-11-22T19:28:42.905Z,39.18
2022-11-22T19:31:12.074Z,39.27
2022-11-22T19:33:38.956Z,39.34
2022-11-22T19:36:08.180Z,39.27
2022-11-22T19:38:34.824Z,39.31
2022-11-22T19:41:01.736Z,39.54
2022-11-22T19:43:28.773Z,39.57
2022-11-22T19:46:00.161Z,39.20
2022-11-22T19:48:27.114Z,39.07
2022-11-22T19:50:53.644Z,39.34
2022-11-22T19:53:20.199Z,39.22
2022-11-22T19:55:46.990Z,38.95
2022-11-22T19:58:13.918Z,39.29
2022-11-22T20:00:41.338Z,39.00
2022-11-22T20:03:12.600Z,39.42
2022-11-22T20:05:41.474Z,39.27
2022-11-22T20:08:09.822Z,39.54
2022-11-22T20:10:38.316Z,39.38
2022-11-22T20:13:09.331Z,39.50
2022-11-22T20:15:37.351Z,39.28
2022-11-22T20:18:04.077Z,39.25
2022-11-22T20:20:30.991Z,39.36
2022-11-22T20:22:57.974Z,39.51
2022-11-22T20:25:24.801Z,39.43
2022-11-22T20:27:51.389Z,39.38
2022-11-22T20:30:18.033Z,39.47
2022-11-22T20:32:44.683Z,39.32
2022-11-22T20:35:11.297Z,39.52
2022-11-22T20:37:38.038Z,39.42
2022-11-22T20:40:05.238Z,39.39
2022-11-22T20:42:34.690Z,39.49
2022-11-22T20:45:03.429Z,39.63
2022-11-22T20:47:30.798Z,39.25
2022-11-22T20:49:57.324Z,39.50
2022-11-22T20:52:23.853Z,39.69
2022-11-22T20:54:52.008Z,39.55
2022-11-22T20:57:18.709Z,39.14
2022-11-22T20:59:45.567Z,39.47
2022-11-22T21:02:12.133Z,39.46
2022-11-22T21:04:38.721Z,39.37
2022-11-22T21:07:05.337Z,39.65
2022-11-22T21:09:32.072Z,39.52
2022-11-22T21:11:58.612Z,39.26
2022-11-22T21:14:25.554Z,39.43
2022-11-22T21:16:52.324Z,39.57
2022-11-22T21:19:19.294Z,39.57
2022-11-22T21:21:45.862Z,39.67
2022-11-22T21:24:15.005Z,39.77
2022-11-22T21:26:41.552Z,39.67
2022-11-22T21:29:15.899Z,39.69
2022-11-22T21:31:43.311Z,39.46
2022-11-22T21:34:11.223Z,39.92
2022-11-22T21:36:37.783Z,39.68
2022-11-22T21:39:04.807Z,39.83
2022-11-22T21:41:39.963Z,39.75
2022-11-22T21:44:08.588Z,39.89
2022-11-22T21:46:35.215Z,40.05
2022-11-22T21:49:01.799Z,39.82
2022-11-22T21:51:28.350Z,39.80
2022-11-22T21:53:59.039Z,39.67
2022-11-22T21:56:26.319Z,39.66
2022-11-22T21:58:53.514Z,39.92
2022-11-22T22:01:20.434Z,39.95
2022-11-22T22:03:47.229Z,39.86
2022-11-22T22:06:14.652Z,39.87
2022-11-22T22:08:41.327Z,39.85
2022-11-22T22:11:08.169Z,39.69
2022-11-22T22:13:34.931Z,39.55
2022-11-22T22:16:06.401Z,39.48
2022-11-22T22:18:34.992Z,39.73
2022-11-22T22:21:06.293Z,39.68
2022-11-22T22:23:34.768Z,39.73
2022-11-22T22:26:02.625Z,39.98
2022-11-22T22:28:33.875Z,39.81
2022-11-22T22:31:12.011Z,39.83
2022-11-22T22:33:40.426Z,39.99
2022-11-22T22:36:08.652Z,39.97
2022-11-22T22:38:35.424Z,40.14
2022-11-22T22:41:03.969Z,39.98
2022-11-22T22:43:32.886Z,40.00
2022-11-22T22:46:07.641Z,39.94
2022-11-22T22:48:34.876Z,39.91
2022-11-22T22:51:09.381Z,40.10
2022-11-22T22:53:36.234Z,39.90
2022-11-22T22:56:03.202Z,39.85
2022-11-22T22:58:30.133Z,40.19
2022-11-22T23:01:13.533Z,40.03
2022-11-22T23:03:40.769Z,39.72
2022-11-22T23:06:08.584Z,40.14
2022-11-22T23:08:35.709Z,39.77
2022-11-22T23:11:07.226Z,39.95
2022-11-22T23:13:36.784Z,39.89
2022-11-22T23:16:08.384Z,40.09
2022-11-22T23:18:37.192Z,39.99
2022-11-22T23:21:05.576Z,40.17
2022-11-22T23:23:32.946Z,39.98
2022-11-22T23:26:04.775Z,40.07
2022-11-22T23:28:31.664Z,40.10
2022-11-22T23:31:13.749Z,39.94
2022-11-22T23:33:42.044Z,39.94
2022-11-22T23:36:12.925Z,39.82
2022-11-22T23:38:40.146Z,40.29
2022-11-22T23:41:06.988Z,40.34
2022-11-22T23:43:33.578Z,39.92
2022-11-22T23:46:00.164Z,40.14
2022-11-22T23:48:27.440Z,40.29
2022-11-22T23:50:54.186Z,40.36
2022-11-22T23:53:20.925Z,40.36
2022-11-22T23:55:47.666Z,40.29
2022-11-22T23:58:14.270Z,40.08
